Time;durP1;ratioP1;P1;durP2;ratioP2;P2;SDS_P1;SDS_P2;PMS_P1;PMS_P2;Temp;Humidity;BMP_temperature;BMP_pressure;BME280_temperature;BME280_humidity;BME280_pressure;Samples;Min_cycle;Max_cycle;Signal;HPM_P1;HPM_P2
2023/01/09 00:01:01;;;;;;;4.40;1.80;;;31.00;54.90;;;;;;5065294;28;20048;-62
2023/01/09 00:03:29;;;;;;;4.55;1.70;;;31.10;57.00;;;;;;5066382;28;20071;-63
2023/01/09 00:05:56;;;;;;;4.80;1.00;;;31.10;57.70;;;;;;5075359;28;20397;-62
2023/01/09 00:08:23;;;;;;;5.07;1.25;;;31.50;54.40;;;;;;5081041;28;20468;-62
2023/01/09 00:10:50;;;;;;;7.47;1.67;;;31.50;54.40;;;;;;5072211;28;20037;-63
2023/01/09 00:13:18;;;;;;;6.25;1.20;;;31.40;54.40;;;;;;5075047;28;20115;-63
2023/01/09 00:15:45;;;;;;;3.85;1.02;;;31.30;52.60;;;;;;5068060;28;20733;-62
2023/01/09 00:18:13;;;;;;;3.70;1.45;;;31.40;52.90;;;;;;5067843;28;20024;-63
2023/01/09 00:20:40;;;;;;;4.40;1.02;;;31.40;52.40;;;;;;5077554;28;20071;-63
2023/01/09 00:23:07;;;;;;;4.63;1.20;;;31.00;51.90;;;;;;5070231;28;20051;-63
2023/01/09 00:25:35;;;;;;;3.97;1.67;;;30.70;52.20;;;;;;5074071;28;20084;-63
2023/01/09 00:28:02;;;;;;;3.33;0.98;;;30.90;53.00;;;;;;5077077;28;20535;-63
2023/01/09 00:30:30;;;;;;;2.30;0.80;;;31.10;53.80;;;;;;5075762;28;20050;-63
2023/01/09 00:32:57;;;;;;;3.20;1.20;;;31.20;52.00;;;;;;5068974;28;20558;-63
2023/01/09 00:35:26;;;;;;;6.55;1.35;;;31.40;50.60;;;;;;5070431;28;20079;-63
2023/01/09 00:37:54;;;;;;;7.18;1.10;;;31.70;50.10;;;;;;5066452;28;20056;-63
2023/01/09 00:40:21;;;;;;;5.40;1.25;;;32.00;50.20;;;;;;5072718;28;20356;-63
2023/01/09 00:42:55;;;;;;;3.25;0.90;;;31.90;48.90;;;;;;5083386;28;20017;-64
2023/01/09 00:45:27;;;;;;;3.60;0.98;;;32.10;48.80;;;;;;5065987;28;20111;-65
2023/01/09 00:48:02;;;;;;;6.75;2.35;;;32.00;48.70;;;;;;5068090;28;20040;-64
2023/01/09 00:50:31;;;;;;;6.22;1.23;;;31.80;49.20;;;;;;5070095;28;20112;-63
2023/01/09 00:53:05;;;;;;;3.88;1.00;;;32.20;51.00;;;;;;5064837;28;20116;-64
2023/01/09 00:55:37;;;;;;;6.82;1.00;;;32.80;48.70;;;;;;5062115;28;20570;-65
2023/01/09 00:58:04;;;;;;;4.38;1.13;;;33.30;46.50;;;;;;5068393;28;20037;-64
2023/01/09 01:00:32;;;;;;;5.30;1.27;;;33.50;48.20;;;;;;5065648;28;20044;-63
2023/01/09 01:02:59;;;;;;;3.92;1.00;;;33.40;48.10;;;;;;5067605;28;20385;-64
2023/01/09 01:08:16;;;;;;;4.47;1.15;;;33.70;51.00;;;;;;5068426;28;20024;-65
2023/01/09 01:10:44;;;;;;;4.45;1.10;;;33.30;46.50;;;;;;5068838;28;20086;-64
2023/01/09 01:13:12;;;;;;;6.65;0.98;;;33.00;49.10;;;;;;5073975;28;20021;-64
2023/01/09 01:15:41;;;;;;;9.40;1.45;;;33.10;48.40;;;;;;5067960;28;20067;-63
2023/01/09 01:18:12;;;;;;;8.80;1.50;;;33.10;47.50;;;;;;5065533;28;20021;-64
2023/01/09 01:20:44;;;;;;;5.93;2.25;;;33.10;48.40;;;;;;5068620;28;20075;-63
2023/01/09 01:23:11;;;;;;;4.68;1.25;;;32.90;49.50;;;;;;5070826;28;20028;-65
2023/01/09 01:25:40;;;;;;;5.60;1.13;;;33.00;51.10;;;;;;5071131;28;20036;-61
2023/01/09 01:28:09;;;;;;;4.28;1.55;;;33.10;50.50;;;;;;5062122;28;20021;-64
2023/01/09 01:30:41;;;;;;;6.78;1.55;;;33.10;48.40;;;;;;5071078;28;20036;-64
2023/01/09 01:33:09;;;;;;;2.70;1.00;;;33.20;49.20;;;;;;5082062;28;20028;-64
2023/01/09 01:35:36;;;;;;;8.48;1.63;;;33.30;48.40;;;;;;5079968;28;20036;-64
2023/01/09 01:38:04;;;;;;;9.05;1.90;;;33.30;48.40;;;;;;5068013;28;20069;-65
2023/01/09 01:40:33;;;;;;;7.65;1.33;;;33.60;46.80;;;;;;5069691;28;20090;-64
2023/01/09 01:43:00;;;;;;;4.05;1.00;;;33.50;45.30;;;;;;5084991;28;20020;-64
2023/01/09 01:45:29;;;;;;;5.05;1.20;;;33.10;45.90;;;;;;5068442;28;20508;-63
2023/01/09 01:48:31;;;;;;;7.18;1.13;;;32.40;45.40;;;;;;5074909;28;20064;-63
2023/01/09 01:51:02;;;;;;;4.13;1.30;;;32.30;46.80;;;;;;5070864;28;20559;-62
2023/01/09 01:53:32;;;;;;;5.07;1.20;;;32.20;45.30;;;;;;5073756;28;20024;-63
2023/01/09 01:56:09;;;;;;;3.80;1.10;;;32.20;45.70;;;;;;5070589;28;20448;-63
2023/01/09 01:58:44;;;;;;;4.88;1.15;;;32.30;46.50;;;;;;5073268;28;20520;-64
2023/01/09 02:01:11;;;;;;;5.13;1.77;;;32.20;47.40;;;;;;5078778;28;20028;-62
2023/01/09 02:03:41;;;;;;;7.65;1.45;;;32.10;47.60;;;;;;5075989;28;20045;-62
2023/01/09 02:06:09;;;;;;;4.75;1.95;;;32.60;48.80;;;;;;5080466;28;20028;-62
2023/01/09 02:08:37;;;;;;;9.60;1.90;;;32.60;48.60;;;;;;5080930;28;20086;-63
2023/01/09 02:11:05;;;;;;;4.10;1.58;;;32.70;47.10;;;;;;5068633;28;20079;-63
2023/01/09 02:13:37;;;;;;;3.78;1.25;;;32.90;46.60;;;;;;5075892;28;20435;-63
2023/01/09 02:16:31;;;;;;;4.00;1.23;;;32.80;45.50;;;;;;5062388;28;20104;-64
2023/01/09 02:19:20;;;;;;;5.70;1.15;;;33.50;50.20;;;;;;5071722;28;20101;-64
2023/01/09 02:22:14;;;;;;;4.22;1.38;;;33.70;46.80;;;;;;5070885;28;20489;-63
2023/01/09 02:24:49;;;;;;;7.72;1.40;;;34.00;46.30;;;;;;5065829;28;20024;-63
2023/01/09 02:27:37;;;;;;;4.97;1.15;;;34.40;46.80;;;;;;5066713;28;20071;-63
2023/01/09 02:30:30;;;;;;;4.57;1.20;;;34.20;44.70;;;;;;5068737;28;20035;-64
2023/01/09 02:33:09;;;;;;;3.10;1.05;;;34.40;46.30;;;;;;5068673;28;20028;-63
2023/01/09 02:35:52;;;;;;;4.90;1.30;;;34.50;44.40;;;;;;5070386;28;20025;-63
2023/01/09 02:38:56;;;;;;;4.63;1.45;;;33.90;45.20;;;;;;5070086;28;20434;-63
2023/01/09 02:41:42;;;;;;;4.35;1.17;;;34.00;45.90;;;;;;5067809;28;20478;-63
2023/01/09 02:44:15;;;;;;;9.07;1.20;;;34.40;47.30;;;;;;5076567;28;20029;-63
2023/01/09 02:46:43;;;;;;;3.65;1.30;;;34.70;44.30;;;;;;5072800;28;20090;-63
2023/01/09 02:49:11;;;;;;;3.70;1.30;;;34.40;43.70;;;;;;5080266;28;20490;-63
2023/01/09 02:51:51;;;;;;;4.22;1.40;;;34.40;45.30;;;;;;5071071;28;20028;-65
2023/01/09 02:54:39;;;;;;;4.15;1.23;;;34.30;44.50;;;;;;5066123;28;20127;-64
2023/01/09 02:57:23;;;;;;;3.22;1.17;;;33.90;44.90;;;;;;5070219;28;20137;-65
2023/01/09 03:00:18;;;;;;;4.15;1.52;;;33.90;47.00;;;;;;5073753;28;20034;-66
2023/01/09 03:02:56;;;;;;;3.83;1.38;;;34.00;46.20;;;;;;5060952;28;20032;-65
2023/01/09 03:05:36;;;;;;;4.75;1.25;;;33.90;45.80;;;;;;5063743;28;20949;-65
2023/01/09 03:08:09;;;;;;;2.88;1.35;;;33.80;45.70;;;;;;5071827;28;20103;-65
2023/01/09 03:10:45;;;;;;;3.42;0.93;;;33.90;46.20;;;;;;5065538;28;20166;-64
2023/01/09 03:13:17;;;;;;;3.08;1.60;;;33.70;46.30;;;;;;5070512;28;20099;-65
2023/01/09 03:15:49;;;;;;;3.58;1.40;;;33.70;45.10;;;;;;5075008;28;20461;-65
2023/01/09 03:18:21;;;;;;;3.65;1.10;;;33.70;46.30;;;;;;5070768;28;20025;-65
2023/01/09 03:20:49;;;;;;;9.52;1.45;;;33.80;46.40;;;;;;5066715;28;20028;-66
2023/01/09 03:23:16;;;;;;;5.65;1.33;;;34.20;47.00;;;;;;5067016;28;20124;-67
2023/01/09 03:25:44;;;;;;;6.55;1.20;;;34.20;44.80;;;;;;5066296;28;20393;-66
2023/01/09 03:28:31;;;;;;;4.47;1.20;;;34.00;46.90;;;;;;5065508;28;20021;-67
2023/01/09 03:30:58;;;;;;;5.75;1.30;;;33.30;48.00;;;;;;5066825;28;20078;-67
2023/01/09 03:33:27;;;;;;;9.57;2.80;;;33.00;48.60;;;;;;5069830;28;20032;-67
2023/01/09 03:35:54;;;;;;;3.80;1.40;;;33.10;49.90;;;;;;5064276;28;20028;-67
2023/01/09 03:38:22;;;;;;;7.25;1.08;;;32.90;49.50;;;;;;5067087;28;20477;-68
2023/01/09 03:40:50;;;;;;;3.08;1.20;;;33.00;49.90;;;;;;5068048;28;20035;-66
2023/01/09 03:43:17;;;;;;;3.08;1.05;;;33.20;49.20;;;;;;5062473;28;20028;-66
2023/01/09 03:45:44;;;;;;;5.53;1.15;;;32.80;50.10;;;;;;5065355;28;20028;-67
2023/01/09 03:48:11;;;;;;;8.27;1.45;;;32.70;51.60;;;;;;5066626;28;20115;-68
2023/01/09 03:50:41;;;;;;;6.15;1.20;;;32.80;49.90;;;;;;5067658;28;20421;-68
2023/01/09 03:53:08;;;;;;;6.00;1.58;;;32.40;50.40;;;;;;5067817;28;20023;-68
2023/01/09 03:55:36;;;;;;;4.90;2.20;;;32.30;51.50;;;;;;5067349;28;20044;-68
2023/01/09 03:58:03;;;;;;;6.80;1.00;;;32.20;51.70;;;;;;5066829;28;20020;-69
2023/01/09 04:00:30;;;;;;;3.25;1.10;;;31.90;52.50;;;;;;5069642;28;20028;-67
2023/01/09 04:02:57;;;;;;;3.63;1.10;;;31.80;52.00;;;;;;5066997;28;20489;-66
2023/01/09 04:05:25;;;;;;;4.45;1.60;;;31.70;53.00;;;;;;5064891;28;20055;-67
2023/01/09 04:07:52;;;;;;;4.60;1.00;;;31.60;53.50;;;;;;5063421;28;20027;-66
2023/01/09 04:10:19;;;;;;;3.47;1.05;;;31.60;53.70;;;;;;5061729;28;20040;-66
2023/01/09 04:12:47;;;;;;;5.63;1.20;;;31.70;53.80;;;;;;5064734;28;20099;-65
2023/01/09 04:15:14;;;;;;;4.53;1.20;;;31.30;53.80;;;;;;5065453;28;20016;-66
2023/01/09 04:17:41;;;;;;;5.32;1.23;;;31.00;54.60;;;;;;5063608;28;20028;-69
2023/01/09 04:20:10;;;;;;;6.22;1.45;;;31.10;55.30;;;;;;5065727;28;20043;-67
2023/01/09 04:22:38;;;;;;;10.88;1.70;;;31.20;54.40;;;;;;5064332;28;20082;-66
2023/01/09 04:25:05;;;;;;;5.40;1.30;;;30.80;54.80;;;;;;5067226;28;20063;-67
2023/01/09 04:27:33;;;;;;;4.13;1.65;;;30.20;56.50;;;;;;5062298;28;20020;-68
2023/01/09 04:30:00;;;;;;;4.43;1.45;;;30.30;56.40;;;;;;5064986;28;20067;-67
2023/01/09 04:32:27;;;;;;;5.70;1.70;;;30.50;56.80;;;;;;5066165;28;20485;-70
2023/01/09 04:34:55;;;;;;;7.38;1.75;;;30.50;58.10;;;;;;5062820;28;20549;-68
2023/01/09 04:37:23;;;;;;;6.68;1.42;;;30.50;57.30;;;;;;5064498;28;20023;-68
2023/01/09 04:39:53;;;;;;;5.75;1.40;;;30.70;57.70;;;;;;5066506;28;20103;-68
2023/01/09 04:42:21;;;;;;;4.70;1.65;;;30.60;57.10;;;;;;5069044;28;20024;-67
2023/01/09 04:44:52;;;;;;;2.45;1.25;;;30.80;57.40;;;;;;5066126;28;20035;-67
2023/01/09 04:47:22;;;;;;;4.13;1.67;;;30.70;57.00;;;;;;5079536;28;20032;-68
2023/01/09 04:49:50;;;;;;;4.25;1.35;;;30.30;57.90;;;;;;5070186;28;20107;-68
2023/01/09 04:52:17;;;;;;;6.85;1.25;;;30.20;58.90;;;;;;5070318;28;20120;-68
2023/01/09 04:54:44;;;;;;;4.53;1.23;;;30.10;57.40;;;;;;5083698;28;20040;-68
2023/01/09 04:57:11;;;;;;;11.40;2.13;;;30.10;58.50;;;;;;5070010;28;20041;-68
2023/01/09 04:59:38;;;;;;;5.03;1.60;;;30.00;59.20;;;;;;5073269;28;20023;-69
2023/01/09 05:02:06;;;;;;;4.07;1.35;;;30.10;57.20;;;;;;5064036;28;20036;-68
2023/01/09 05:04:33;;;;;;;4.85;1.73;;;30.00;56.30;;;;;;5075335;28;20075;-67
2023/01/09 05:07:01;;;;;;;4.72;1.00;;;29.70;56.70;;;;;;5084346;28;20570;-67
2023/01/09 05:09:28;;;;;;;4.65;1.30;;;29.50;57.30;;;;;;5079067;28;20039;-68
2023/01/09 05:11:56;;;;;;;6.47;1.45;;;29.50;56.80;;;;;;5074045;28;20089;-67
2023/01/09 05:14:23;;;;;;;7.93;1.27;;;29.40;58.10;;;;;;5068763;28;20367;-67
2023/01/09 05:16:50;;;;;;;6.43;1.52;;;29.60;57.00;;;;;;5063020;28;20024;-66
2023/01/09 05:19:17;;;;;;;7.05;1.10;;;29.80;57.10;;;;;;5074831;28;20036;-68
2023/01/09 05:21:45;;;;;;;4.72;1.33;;;29.50;56.40;;;;;;5073453;28;20048;-68
2023/01/09 05:24:15;;;;;;;6.57;1.77;;;29.10;57.00;;;;;;5070916;28;20074;-67
2023/01/09 05:26:42;;;;;;;3.13;1.00;;;29.20;57.50;;;;;;5077238;28;20389;-68
2023/01/09 05:29:10;;;;;;;6.07;1.13;;;29.30;58.00;;;;;;5072213;28;20021;-68
2023/01/09 05:31:37;;;;;;;4.97;1.52;;;29.30;58.00;;;;;;5086185;28;20025;-68
2023/01/09 05:34:04;;;;;;;4.57;0.98;;;29.20;57.40;;;;;;5070651;28;20091;-65
2023/01/09 05:36:31;;;;;;;4.88;1.35;;;29.10;58.60;;;;;;5085417;28;20027;-67
2023/01/09 05:38:59;;;;;;;4.40;1.33;;;28.90;59.10;;;;;;5072983;28;20086;-68
2023/01/09 05:41:26;;;;;;;2.72;0.82;;;28.60;59.10;;;;;;5075861;28;20028;-68
2023/01/09 05:43:54;;;;;;;3.60;1.00;;;28.40;60.10;;;;;;5073082;28;20118;-67
2023/01/09 05:46:21;;;;;;;4.47;1.75;;;28.60;60.10;;;;;;5068167;28;20413;-67
2023/01/09 05:48:48;;;;;;;6.13;1.13;;;28.80;60.80;;;;;;5073933;28;20025;-68
2023/01/09 05:51:15;;;;;;;5.05;1.42;;;29.00;60.40;;;;;;5070143;28;20111;-67
2023/01/09 05:53:43;;;;;;;3.95;1.30;;;28.90;60.40;;;;;;5071525;28;20070;-68
2023/01/09 05:56:10;;;;;;;3.08;1.00;;;29.10;60.70;;;;;;5072605;28;20060;-67
2023/01/09 05:58:37;;;;;;;3.33;1.25;;;28.90;60.70;;;;;;5072346;28;20027;-66
2023/01/09 06:01:05;;;;;;;6.78;1.60;;;28.90;61.40;;;;;;5073647;28;20087;-67
2023/01/09 06:03:32;;;;;;;3.67;1.20;;;28.80;61.50;;;;;;5072973;28;20024;-68
2023/01/09 06:06:00;;;;;;;4.15;1.45;;;28.70;62.00;;;;;;5068370;28;20044;-67
2023/01/09 06:08:27;;;;;;;2.33;0.88;;;28.80;62.10;;;;;;5067910;28;20475;-68
2023/01/09 06:10:54;;;;;;;5.18;1.67;;;28.60;61.40;;;;;;5071496;28;20086;-66
2023/01/09 06:13:22;;;;;;;5.82;1.48;;;29.00;61.30;;;;;;5076151;28;20020;-66
2023/01/09 06:15:49;;;;;;;5.25;1.42;;;28.70;62.20;;;;;;5071070;28;20035;-68
2023/01/09 06:18:16;;;;;;;4.55;1.10;;;28.60;61.70;;;;;;5070903;28;20120;-66
2023/01/09 06:20:46;;;;;;;3.47;1.23;;;28.60;61.40;;;;;;5070975;28;20027;-67
2023/01/09 06:23:13;;;;;;;4.35;1.20;;;28.50;62.80;;;;;;5073655;28;20044;-66
2023/01/09 06:25:41;;;;;;;4.13;1.00;;;28.40;62.50;;;;;;5070629;28;20024;-67
2023/01/09 06:28:09;;;;;;;3.97;1.27;;;28.40;62.60;;;;;;5068587;28;20025;-66
2023/01/09 06:30:36;;;;;;;2.88;0.70;;;28.40;62.60;;;;;;5067697;28;20025;-67
2023/01/09 06:33:03;;;;;;;6.70;1.33;;;28.20;62.40;;;;;;5071990;28;20470;-67
2023/01/09 06:35:30;;;;;;;2.30;0.80;;;28.00;63.50;;;;;;5068989;28;20032;-67
2023/01/09 06:38:00;;;;;;;5.20;1.33;;;28.20;63.20;;;;;;5067497;28;20024;-67
2023/01/09 06:40:27;;;;;;;3.88;0.95;;;28.50;62.90;;;;;;5067375;28;20453;-67
2023/01/09 06:42:54;;;;;;;3.50;0.70;;;28.60;63.20;;;;;;5070656;28;20020;-68
2023/01/09 06:45:21;;;;;;;2.33;1.00;;;28.60;62.70;;;;;;5075761;28;20023;-66
2023/01/09 06:47:49;;;;;;;8.10;1.23;;;28.60;62.60;;;;;;5068518;28;20021;-67
2023/01/09 06:50:16;;;;;;;1.98;0.73;;;28.60;62.70;;;;;;5066779;28;20370;-67
2023/01/09 06:52:43;;;;;;;3.13;0.90;;;28.20;63.20;;;;;;5064766;28;20028;-67
2023/01/09 06:55:11;;;;;;;3.28;0.70;;;28.10;63.30;;;;;;5067539;28;20049;-66
2023/01/09 06:57:38;;;;;;;4.82;1.10;;;28.50;63.40;;;;;;5071194;28;20106;-68
2023/01/09 07:00:06;;;;;;;3.63;1.20;;;28.30;62.50;;;;;;5067394;28;20031;-67
2023/01/09 07:02:39;;;;;;;2.53;0.93;;;28.20;63.70;;;;;;5061581;28;20103;-63
2023/01/09 07:05:10;;;;;;;4.60;1.10;;;27.90;63.70;;;;;;5066499;28;20032;-69
2023/01/09 07:07:38;;;;;;;2.78;0.90;;;27.90;65.20;;;;;;5067544;28;20496;-70
2023/01/09 07:10:07;;;;;;;4.25;1.38;;;27.80;64.80;;;;;;5066022;28;20660;-69
2023/01/09 07:12:37;;;;;;;3.22;1.40;;;27.80;65.50;;;;;;5065933;28;20029;-68
2023/01/09 07:15:05;;;;;;;4.25;1.02;;;27.60;65.30;;;;;;5064369;28;20612;-70
2023/01/09 07:17:33;;;;;;;3.67;1.40;;;27.50;65.70;;;;;;5062227;28;20043;-69
2023/01/09 07:20:00;;;;;;;8.35;1.23;;;27.40;66.10;;;;;;5063500;28;20024;-68
2023/01/09 07:22:27;;;;;;;3.30;0.88;;;27.20;66.60;;;;;;5064529;28;20037;-69
2023/01/09 07:24:55;;;;;;;6.10;0.90;;;27.00;67.30;;;;;;5062818;28;20674;-70
2023/01/09 07:27:22;;;;;;;5.35;0.95;;;27.00;67.70;;;;;;5066873;28;20048;-70
2023/01/09 07:29:50;;;;;;;3.55;1.15;;;27.00;67.80;;;;;;5066626;28;20073;-70
2023/01/09 07:32:17;;;;;;;3.13;1.30;;;26.90;66.70;;;;;;5065133;28;20028;-71
2023/01/09 07:34:44;;;;;;;2.72;1.23;;;26.60;68.10;;;;;;5067453;28;20496;-68
2023/01/09 07:37:12;;;;;;;4.47;1.20;;;26.60;67.80;;;;;;5066115;28;20063;-70
2023/01/09 07:39:42;;;;;;;1.35;0.88;;;26.40;68.40;;;;;;5064888;28;20025;-69
2023/01/09 07:42:10;;;;;;;4.30;0.90;;;26.20;69.40;;;;;;5067079;28;20040;-68
2023/01/09 07:44:37;;;;;;;4.95;1.10;;;26.20;69.70;;;;;;5061690;28;20021;-70
2023/01/09 07:47:05;;;;;;;4.28;0.90;;;26.20;70.40;;;;;;5061682;28;20032;-69
2023/01/09 07:49:38;;;;;;;2.97;0.90;;;26.00;71.30;;;;;;5064941;28;20081;-70
2023/01/09 07:52:05;;;;;;;4.40;1.10;;;25.80;72.00;;;;;;5079838;28;20047;-70
2023/01/09 07:54:32;;;;;;;2.75;1.05;;;25.70;72.40;;;;;;5067319;28;20065;-70
2023/01/09 07:57:00;;;;;;;2.70;0.70;;;25.70;71.80;;;;;;5066834;28;20047;-71
2023/01/09 07:59:28;;;;;;;5.90;0.90;;;25.60;72.30;;;;;;5066190;28;20032;-68
2023/01/09 08:01:56;;;;;;;8.13;1.00;;;25.50;71.40;;;;;;5067501;28;20048;-71
2023/01/09 08:04:23;;;;;;;4.45;1.10;;;25.50;72.40;;;;;;5067855;28;20473;-68
2023/01/09 08:06:50;;;;;;;7.05;3.20;;;25.30;73.20;;;;;;5067132;28;20035;-70
2023/01/09 08:09:18;;;;;;;7.80;2.00;;;25.10;74.60;;;;;;5067181;28;20073;-71
2023/01/09 08:11:49;;;;;;;5.55;1.30;;;24.90;75.10;;;;;;5066165;28;20020;-70
2023/01/09 08:14:17;;;;;;;5.07;1.35;;;24.70;76.00;;;;;;5066249;28;20047;-70
2023/01/09 08:16:45;;;;;;;3.92;1.65;;;24.60;77.30;;;;;;5047034;28;20482;-68
2023/01/09 08:19:12;;;;;;;5.75;2.15;;;24.50;77.20;;;;;;5066669;28;20029;-70
2023/01/09 08:21:39;;;;;;;6.25;1.13;;;24.40;77.70;;;;;;5067210;28;20556;-70
2023/01/09 08:24:08;;;;;;;3.92;1.00;;;24.30;76.70;;;;;;5066658;28;20043;-69
2023/01/09 08:26:36;;;;;;;1.77;1.08;;;24.20;76.40;;;;;;5066031;28;20047;-70
2023/01/09 08:29:03;;;;;;;6.15;1.40;;;24.10;79.30;;;;;;5066634;28;20099;-70
2023/01/09 08:31:30;;;;;;;3.65;1.48;;;24.00;81.60;;;;;;5066574;28;20025;-70
2023/01/09 08:33:58;;;;;;;5.97;1.40;;;23.90;81.80;;;;;;5066565;28;20039;-72
2023/01/09 08:36:25;;;;;;;4.75;1.00;;;23.80;82.00;;;;;;5056730;28;20035;-67
2023/01/09 08:38:52;;;;;;;3.03;1.23;;;23.70;83.10;;;;;;5047091;28;20025;-66
2023/01/09 08:47:07;;;;;;;2.92;0.90;;;23.40;85.90;;;;;;5047050;28;20886;-67
2023/01/09 08:49:36;;;;;;;4.95;1.48;;;23.40;86.00;;;;;;5066529;28;20055;-68
2023/01/09 08:52:05;;;;;;;5.85;1.00;;;23.20;86.80;;;;;;5066924;28;20017;-68
2023/01/09 08:54:35;;;;;;;2.70;0.70;;;23.10;87.50;;;;;;5066835;28;20166;-67
2023/01/09 08:57:02;;;;;;;4.82;0.85;;;22.90;87.90;;;;;;5066526;28;20493;-67
2023/01/09 08:59:30;;;;;;;3.88;0.75;;;22.90;88.70;;;;;;5066759;28;20063;-68
2023/01/09 09:01:57;;;;;;;3.13;0.98;;;22.90;90.20;;;;;;5066670;28;20071;-68
2023/01/09 09:04:24;;;;;;;2.58;0.77;;;22.80;90.80;;;;;;5066481;28;20421;-67
2023/01/09 09:06:52;;;;;;;1.67;0.75;;;22.70;91.50;;;;;;5066912;28;20038;-67
2023/01/09 09:09:19;;;;;;;3.22;0.70;;;22.50;92.20;;;;;;5066354;28;20020;-67
2023/01/09 09:11:47;;;;;;;1.73;1.13;;;22.30;92.80;;;;;;5066496;28;20383;-67
2023/01/09 09:16:59;;;;;;;4.30;0.77;;;22.00;92.70;;;;;;5066715;28;20124;-68
2023/01/09 09:19:27;;;;;;;4.03;1.15;;;21.80;92.90;;;;;;5066765;28;20111;-67
2023/01/09 09:21:54;;;;;;;4.07;1.02;;;21.70;93.00;;;;;;5066137;28;20466;-67
2023/01/09 09:24:21;;;;;;;3.70;1.08;;;21.60;93.40;;;;;;5066594;28;20175;-68
2023/01/09 09:26:48;;;;;;;4.95;0.90;;;21.60;93.50;;;;;;5065935;28;20028;-68
2023/01/09 09:29:16;;;;;;;1.67;0.73;;;21.40;94.40;;;;;;5065445;28;20024;-68
2023/01/09 09:31:43;;;;;;;1.63;0.80;;;21.30;95.00;;;;;;5064535;28;20039;-68
2023/01/09 09:34:12;;;;;;;6.22;1.10;;;21.20;95.70;;;;;;5054528;28;20383;-67
2023/01/09 09:36:39;;;;;;;7.93;1.92;;;21.20;96.30;;;;;;5066120;28;20390;-67
2023/01/09 09:39:07;;;;;;;3.15;1.00;;;21.10;96.30;;;;;;5054494;28;20033;-67
2023/01/09 09:45:07;;;;;;;8.38;1.30;;;20.80;97.50;;;;;;5066614;28;20070;-65
2023/01/09 09:47:46;;;;;;;4.05;1.30;;;20.70;98.90;;;;;;5066541;28;20123;-68
2023/01/09 09:50:19;;;;;;;5.00;1.10;;;20.60;99.90;;;;;;5066649;28;20028;-66
2023/01/09 09:53:18;;;;;;;4.13;1.10;;;20.40;99.90;;;;;;5066631;28;20029;-67
2023/01/09 09:55:48;;;;;;;3.30;1.38;;;20.30;99.90;;;;;;5065922;28;20040;-68
2023/01/09 09:58:34;;;;;;;5.70;1.10;;;20.10;99.90;;;;;;5065534;28;20029;-71
2023/01/09 10:01:01;;;;;;;2.80;1.27;;;20.10;99.90;;;;;;5065566;28;20032;-69
2023/01/09 10:03:32;;;;;;;3.33;1.00;;;20.00;99.90;;;;;;5066344;28;20036;-70
2023/01/09 10:06:01;;;;;;;5.72;1.30;;;19.90;99.90;;;;;;5068848;28;20064;-70
2023/01/09 10:08:57;;;;;;;3.47;1.02;;;19.80;99.90;;;;;;5068392;28;20032;-70
2023/01/09 10:11:36;;;;;;;5.53;1.10;;;19.60;99.90;;;;;;5067736;28;20509;-70
2023/01/09 10:14:04;;;;;;;2.33;1.05;;;19.40;99.90;;;;;;5062624;28;20466;-70
2023/01/09 10:16:39;;;;;;;3.85;1.10;;;19.30;99.90;;;;;;5066928;28;20673;-69
2023/01/09 10:19:29;;;;;;;3.60;1.17;;;19.20;99.90;;;;;;5065704;28;20440;-70
2023/01/09 10:22:14;;;;;;;4.38;1.17;;;19.00;99.90;;;;;;5066874;28;20039;-68
2023/01/09 10:24:50;;;;;;;4.50;1.27;;;18.90;99.90;;;;;;5066549;28;20052;-67
2023/01/09 10:27:56;;;;;;;4.38;1.00;;;18.90;99.90;;;;;;5060397;28;20068;-71
2023/01/09 10:30:41;;;;;;;2.67;1.30;;;18.80;99.90;;;;;;5051061;28;20048;-70
2023/01/09 10:33:51;;;;;;;3.10;1.45;;;18.70;99.90;;;;;;5068927;28;20024;-70
2023/01/09 10:36:36;;;;;;;2.72;1.30;;;18.60;99.90;;;;;;5049871;28;20045;-70
2023/01/09 10:39:09;;;;;;;1.95;1.27;;;18.50;99.90;;;;;;5052761;28;20084;-69
2023/01/09 10:42:00;;;;;;;5.80;1.40;;;18.30;99.90;;;;;;5069391;28;20028;-68
2023/01/09 10:44:37;;;;;;;2.78;1.27;;;18.30;99.90;;;;;;5068774;28;20510;-69
2023/01/09 10:47:15;;;;;;;7.00;1.45;;;18.20;99.90;;;;;;5068646;28;20047;-68
2023/01/09 10:49:43;;;;;;;5.22;1.50;;;18.00;99.90;;;;;;5064422;28;20489;-68
2023/01/09 10:52:19;;;;;;;6.20;1.45;;;17.90;99.90;;;;;;5069105;28;20028;-68
2023/01/09 10:55:03;;;;;;;3.03;1.40;;;17.70;99.90;;;;;;5067664;28;20146;-69
2023/01/09 10:57:43;;;;;;;4.35;1.52;;;17.60;99.90;;;;;;5067761;28;20028;-69
2023/01/09 11:00:22;;;;;;;3.53;1.50;;;17.50;99.90;;;;;;5069738;28;20020;-68
2023/01/09 11:02:51;;;;;;;4.28;1.70;;;17.40;99.90;;;;;;5071343;28;20020;-69
2023/01/09 11:05:26;;;;;;;4.93;1.40;;;17.40;99.90;;;;;;5071260;28;20031;-69
2023/01/09 11:08:33;;;;;;;5.45;1.90;;;17.40;99.90;;;;;;5071085;28;20540;-68
2023/01/09 11:11:02;;;;;;;3.47;1.70;;;17.30;99.90;;;;;;5067270;28;20501;-68
2023/01/09 11:13:35;;;;;;;7.35;1.88;;;17.20;99.90;;;;;;5076675;28;20046;-68
2023/01/09 11:16:20;;;;;;;5.15;2.17;;;17.20;99.90;;;;;;5069024;28;20112;-69
2023/01/09 11:19:00;;;;;;;5.30;1.65;;;17.20;99.90;;;;;;5060444;28;20017;-69
2023/01/09 11:21:38;;;;;;;5.93;2.10;;;17.10;99.90;;;;;;5070592;28;20043;-69
2023/01/09 11:24:27;;;;;;;9.80;1.90;;;17.10;99.90;;;;;;5070772;28;20024;-70
2023/01/09 11:27:27;;;;;;;3.25;1.70;;;17.20;99.90;;;;;;5070251;28;20077;-70
2023/01/09 11:30:26;;;;;;;7.78;2.30;;;17.20;99.90;;;;;;5070296;28;20032;-69
2023/01/09 11:32:55;;;;;;;2.40;1.52;;;17.30;99.90;;;;;;5067832;28;20044;-68
2023/01/09 11:35:32;;;;;;;3.53;1.50;;;17.30;99.90;;;;;;5070921;28;20032;-68
2023/01/09 11:38:15;;;;;;;3.13;1.63;;;17.20;99.90;;;;;;5069323;28;20021;-68
2023/01/09 11:40:52;;;;;;;5.10;2.00;;;17.20;99.90;;;;;;5069865;28;20111;-68
2023/01/09 11:43:31;;;;;;;3.42;1.92;;;17.00;99.90;;;;;;5070585;28;20028;-68
2023/01/09 11:46:05;;;;;;;4.32;1.38;;;16.90;99.90;;;;;;5069120;28;20029;-68
2023/01/09 11:48:35;;;;;;;4.03;1.58;;;16.90;99.90;;;;;;5069575;28;20033;-68
2023/01/09 11:51:24;;;;;;;5.32;1.58;;;16.80;99.90;;;;;;5070154;28;20090;-70
2023/01/09 11:54:36;;;;;;;3.38;1.70;;;16.70;99.90;;;;;;5068568;28;20039;-69
2023/01/09 11:57:04;;;;;;;4.15;1.50;;;16.60;99.90;;;;;;5043740;28;20040;-69
2023/01/09 11:59:31;;;;;;;6.35;1.98;;;16.60;99.90;;;;;;5062343;28;20157;-69
2023/01/09 12:02:20;;;;;;;3.13;2.00;;;16.50;99.90;;;;;;5066798;28;20091;-68
2023/01/09 12:05:08;;;;;;;3.78;1.63;;;16.50;99.90;;;;;;5064513;28;20028;-68
2023/01/09 12:07:56;;;;;;;8.82;2.35;;;16.50;99.90;;;;;;5068904;28;20036;-68
2023/01/09 12:10:40;;;;;;;2.92;1.75;;;16.50;99.90;;;;;;5069108;28;20025;-69
2023/01/09 12:13:21;;;;;;;4.82;2.08;;;16.40;99.90;;;;;;5069294;28;20048;-69
2023/01/09 12:16:03;;;;;;;5.55;1.85;;;16.40;99.90;;;;;;5068840;28;20056;-69
2023/01/09 12:18:51;;;;;;;8.20;2.30;;;16.50;99.90;;;;;;5065647;28;20485;-68
2023/01/09 12:21:41;;;;;;;8.75;1.70;;;16.40;99.90;;;;;;5069710;28;20393;-68
2023/01/09 12:24:34;;;;;;;5.18;1.60;;;16.30;99.90;;;;;;5069126;28;20421;-69
2023/01/09 12:27:07;;;;;;;4.97;2.28;;;16.40;99.90;;;;;;5069149;28;20036;-68
2023/01/09 12:29:54;;;;;;;3.08;1.90;;;16.40;99.90;;;;;;5069821;28;20119;-68
2023/01/09 12:32:48;;;;;;;4.22;1.58;;;16.40;99.90;;;;;;5050927;28;20101;-70
2023/01/09 12:35:44;;;;;;;3.42;1.55;;;16.50;99.90;;;;;;5069205;28;20074;-69
2023/01/09 12:38:40;;;;;;;8.55;1.67;;;16.60;99.90;;;;;;5069048;28;20028;-69
2023/01/09 12:41:21;;;;;;;5.60;1.30;;;16.60;99.90;;;;;;5067718;28;20031;-69
2023/01/09 12:44:09;;;;;;;5.78;1.88;;;16.50;99.90;;;;;;5067123;28;20028;-69
2023/01/09 12:47:00;;;;;;;4.90;1.77;;;16.50;99.90;;;;;;5067875;28;20047;-69
2023/01/09 12:49:35;;;;;;;2.70;1.55;;;16.50;99.90;;;;;;5067747;28;20095;-69
2023/01/09 12:52:23;;;;;;;4.00;1.50;;;16.50;99.90;;;;;;5070188;28;20057;-68
2023/01/09 12:55:19;;;;;;;3.30;1.83;;;16.40;99.90;;;;;;5067455;28;20040;-70
2023/01/09 12:57:52;;;;;;;4.85;2.25;;;16.40;99.90;;;;;;5068920;28;20124;-70
2023/01/09 13:00:42;;;;;;;3.88;1.50;;;16.30;99.90;;;;;;5050738;28;20053;-69
2023/01/09 13:03:24;;;;;;;4.45;2.00;;;16.20;99.90;;;;;;5056534;28;20112;-69
2023/01/09 13:05:56;;;;;;;5.97;1.90;;;16.20;99.90;;;;;;5069771;28;20046;-69
2023/01/09 13:08:49;;;;;;;3.60;1.63;;;16.10;99.90;;;;;;5069455;28;20033;-69
2023/01/09 13:11:19;;;;;;;5.55;1.95;;;16.10;99.90;;;;;;5068583;28;20021;-68
2023/01/09 13:13:56;;;;;;;3.47;2.03;;;16.00;99.90;;;;;;5068769;28;20024;-69
2023/01/09 13:16:35;;;;;;;3.42;1.90;;;16.00;99.90;;;;;;5069257;28;20025;-68
2023/01/09 13:19:36;;;;;;;3.17;1.63;;;15.90;99.90;;;;;;5069029;28;20023;-69
2023/01/09 13:22:05;;;;;;;5.63;1.83;;;15.80;99.90;;;;;;5064278;28;20511;-68
2023/01/09 13:25:09;;;;;;;3.42;1.85;;;15.70;99.90;;;;;;5068709;28;20170;-70
2023/01/09 13:27:40;;;;;;;5.65;2.10;;;15.60;99.90;;;;;;5068874;28;20047;-70
2023/01/09 13:30:27;;;;;;;4.30;1.65;;;15.50;99.90;;;;;;5068912;28;20029;-70
2023/01/09 13:33:00;;;;;;;5.53;1.73;;;15.40;99.90;;;;;;5069086;28;20017;-70